sensor_id;sensor_type;location;lat;lon;timestamp;temperature;humidity
12885;DHT22;6510;51.362;7.370;2023-09-30T00:01:18;11.40;99.90
12885;DHT22;6510;51.362;7.370;2023-09-30T00:03:44;11.40;99.90
12885;DHT22;6510;51.362;7.370;2023-09-30T00:06:10;11.30;99.90
12885;DHT22;6510;51.362;7.370;2023-09-30T00:08:36;11.40;99.90
12885;DHT22;6510;51.362;7.370;2023-09-30T00:11:05;11.50;99.90
12885;DHT22;6510;51.362;7.370;2023-09-30T00:13:34;11.50;99.90
12885;DHT22;6510;51.362;7.370;2023-09-30T00:16:03;11.40;99.90
12885;DHT22;6510;51.362;7.370;2023-09-30T00:18:33;11.30;99.90
12885;DHT22;6510;51.362;7.370;2023-09-30T00:20:59;11.40;99.90
12885;DHT22;6510;51.362;7.370;2023-09-30T00:23:24;11.30;99.90
12885;DHT22;6510;51.362;7.370;2023-09-30T00:25:50;11.40;99.90
12885;DHT22;6510;51.362;7.370;2023-09-30T00:28:16;11.40;99.90
12885;DHT22;6510;51.362;7.370;2023-09-30T00:30:41;11.50;99.90
12885;DHT22;6510;51.362;7.370;2023-09-30T00:33:07;11.50;99.90
12885;DHT22;6510;51.362;7.370;2023-09-30T00:35:33;11.50;99.90
12885;DHT22;6510;51.362;7.370;2023-09-30T00:37:59;11.40;99.90
12885;DHT22;6510;51.362;7.370;2023-09-30T00:40:24;11.40;99.90
12885;DHT22;6510;51.362;7.370;2023-09-30T00:42:50;11.40;99.90
12885;DHT22;6510;51.362;7.370;2023-09-30T00:45:16;11.40;99.90
12885;DHT22;6510;51.362;7.370;2023-09-30T00:47:41;11.40;99.90
12885;DHT22;6510;51.362;7.370;2023-09-30T00:50:07;11.40;99.90
12885;DHT22;6510;51.362;7.370;2023-09-30T00:52:35;11.40;99.90
12885;DHT22;6510;51.362;7.370;2023-09-30T00:55:01;11.40;99.90
12885;DHT22;6510;51.362;7.370;2023-09-30T00:57:31;11.30;99.90
12885;DHT22;6510;51.362;7.370;2023-09-30T00:59:58;11.50;99.90
12885;DHT22;6510;51.362;7.370;2023-09-30T01:02:24;11.40;99.90
12885;DHT22;6510;51.362;7.370;2023-09-30T01:04:50;11.40;99.90
12885;DHT22;6510;51.362;7.370;2023-09-30T01:07:16;11.40;99.90
12885;DHT22;6510;51.362;7.370;2023-09-30T01:09:41;11.50;99.90
12885;DHT22;6510;51.362;7.370;2023-09-30T01:12:07;11.50;99.90
12885;DHT22;6510;51.362;7.370;2023-09-30T01:14:35;11.50;99.90
12885;DHT22;6510;51.362;7.370;2023-09-30T01:17:01;11.50;99.90
12885;DHT22;6510;51.362;7.370;2023-09-30T01:19:27;11.40;99.90
12885;DHT22;6510;51.362;7.370;2023-09-30T01:21:54;11.40;99.90
12885;DHT22;6510;51.362;7.370;2023-09-30T01:24:22;11.40;99.90
12885;DHT22;6510;51.362;7.370;2023-09-30T01:26:47;11.50;99.90
12885;DHT22;6510;51.362;7.370;2023-09-30T01:29:14;11.50;99.90
12885;DHT22;6510;51.362;7.370;2023-09-30T01:31:39;11.60;99.90
12885;DHT22;6510;51.362;7.370;2023-09-30T01:34:05;11.60;99.90
12885;DHT22;6510;51.362;7.370;2023-09-30T01:36:31;11.60;99.90
12885;DHT22;6510;51.362;7.370;2023-09-30T01:38:57;11.50;99.90
12885;DHT22;6510;51.362;7.370;2023-09-30T01:41:23;11.40;99.90
12885;DHT22;6510;51.362;7.370;2023-09-30T01:43:48;11.40;99.90
12885;DHT22;6510;51.362;7.370;2023-09-30T01:46:14;11.30;99.90
12885;DHT22;6510;51.362;7.370;2023-09-30T01:48:40;11.30;99.90
12885;DHT22;6510;51.362;7.370;2023-09-30T01:51:06;11.30;99.90
12885;DHT22;6510;51.362;7.370;2023-09-30T01:53:32;11.30;99.90
12885;DHT22;6510;51.362;7.370;2023-09-30T01:55:58;11.30;99.90
12885;DHT22;6510;51.362;7.370;2023-09-30T01:58:23;11.30;99.90
12885;DHT22;6510;51.362;7.370;2023-09-30T02:00:50;11.40;99.90
12885;DHT22;6510;51.362;7.370;2023-09-30T02:03:16;11.40;99.90
12885;DHT22;6510;51.362;7.370;2023-09-30T02:05:42;11.40;99.90
12885;DHT22;6510;51.362;7.370;2023-09-30T02:08:08;11.40;99.90
12885;DHT22;6510;51.362;7.370;2023-09-30T02:10:34;11.40;99.90
12885;DHT22;6510;51.362;7.370;2023-09-30T02:13:00;11.40;99.90
12885;DHT22;6510;51.362;7.370;2023-09-30T02:15:26;11.30;99.90
12885;DHT22;6510;51.362;7.370;2023-09-30T02:17:51;11.30;99.90
12885;DHT22;6510;51.362;7.370;2023-09-30T02:20:17;11.30;99.90
12885;DHT22;6510;51.362;7.370;2023-09-30T02:22:47;11.20;99.90
12885;DHT22;6510;51.362;7.370;2023-09-30T02:25:14;11.30;99.90
12885;DHT22;6510;51.362;7.370;2023-09-30T02:27:41;11.20;99.90
12885;DHT22;6510;51.362;7.370;2023-09-30T02:30:10;11.20;99.90
12885;DHT22;6510;51.362;7.370;2023-09-30T02:32:39;11.20;99.90
12885;DHT22;6510;51.362;7.370;2023-09-30T02:35:06;11.10;99.90
12885;DHT22;6510;51.362;7.370;2023-09-30T02:37:35;11.10;99.90
12885;DHT22;6510;51.362;7.370;2023-09-30T02:40:03;11.00;99.90
12885;DHT22;6510;51.362;7.370;2023-09-30T02:42:30;11.00;99.90
12885;DHT22;6510;51.362;7.370;2023-09-30T02:44:56;11.10;99.90
12885;DHT22;6510;51.362;7.370;2023-09-30T02:47:21;11.00;99.90
12885;DHT22;6510;51.362;7.370;2023-09-30T02:49:47;11.00;99.90
12885;DHT22;6510;51.362;7.370;2023-09-30T02:52:12;11.00;99.90
12885;DHT22;6510;51.362;7.370;2023-09-30T02:54:38;11.00;99.90
12885;DHT22;6510;51.362;7.370;2023-09-30T02:57:03;11.00;99.90
12885;DHT22;6510;51.362;7.370;2023-09-30T02:59:29;11.00;99.90
12885;DHT22;6510;51.362;7.370;2023-09-30T03:01:55;11.10;99.90
12885;DHT22;6510;51.362;7.370;2023-09-30T03:04:21;11.10;99.90
12885;DHT22;6510;51.362;7.370;2023-09-30T03:06:51;11.10;99.90
12885;DHT22;6510;51.362;7.370;2023-09-30T03:09:17;11.00;99.90
12885;DHT22;6510;51.362;7.370;2023-09-30T03:11:43;11.00;99.90
12885;DHT22;6510;51.362;7.370;2023-09-30T03:14:10;11.00;99.90
12885;DHT22;6510;51.362;7.370;2023-09-30T03:16:36;11.00;99.90
12885;DHT22;6510;51.362;7.370;2023-09-30T03:19:03;10.90;99.90
12885;DHT22;6510;51.362;7.370;2023-09-30T03:21:37;11.00;99.90
12885;DHT22;6510;51.362;7.370;2023-09-30T03:24:06;10.90;99.90
12885;DHT22;6510;51.362;7.370;2023-09-30T03:26:34;10.90;99.90
12885;DHT22;6510;51.362;7.370;2023-09-30T03:28:59;10.90;99.90
12885;DHT22;6510;51.362;7.370;2023-09-30T03:31:25;10.80;99.90
12885;DHT22;6510;51.362;7.370;2023-09-30T03:33:51;10.80;99.90
12885;DHT22;6510;51.362;7.370;2023-09-30T03:36:20;10.70;99.90
12885;DHT22;6510;51.362;7.370;2023-09-30T03:38:45;10.70;99.90
12885;DHT22;6510;51.362;7.370;2023-09-30T03:41:11;10.80;99.90
12885;DHT22;6510;51.362;7.370;2023-09-30T03:43:39;10.80;99.90
12885;DHT22;6510;51.362;7.370;2023-09-30T03:46:10;10.80;99.90
12885;DHT22;6510;51.362;7.370;2023-09-30T03:48:37;10.70;99.90
12885;DHT22;6510;51.362;7.370;2023-09-30T03:51:09;10.70;99.90
12885;DHT22;6510;51.362;7.370;2023-09-30T03:53:34;10.70;99.90
12885;DHT22;6510;51.362;7.370;2023-09-30T03:56:01;10.70;99.90
12885;DHT22;6510;51.362;7.370;2023-09-30T03:58:27;10.70;99.90
12885;DHT22;6510;51.362;7.370;2023-09-30T04:00:53;10.70;99.90
12885;DHT22;6510;51.362;7.370;2023-09-30T04:03:20;10.70;99.90
12885;DHT22;6510;51.362;7.370;2023-09-30T04:05:45;10.60;99.90
12885;DHT22;6510;51.362;7.370;2023-09-30T04:08:11;10.60;99.90
12885;DHT22;6510;51.362;7.370;2023-09-30T04:10:37;10.70;99.90
12885;DHT22;6510;51.362;7.370;2023-09-30T04:13:02;10.60;99.90
12885;DHT22;6510;51.362;7.370;2023-09-30T04:15:28;10.70;99.90
12885;DHT22;6510;51.362;7.370;2023-09-30T04:17:54;10.60;99.90
12885;DHT22;6510;51.362;7.370;2023-09-30T04:20:20;10.70;99.90
12885;DHT22;6510;51.362;7.370;2023-09-30T04:22:52;10.80;99.90
12885;DHT22;6510;51.362;7.370;2023-09-30T04:25:22;10.80;99.90
12885;DHT22;6510;51.362;7.370;2023-09-30T04:27:50;10.70;99.90
12885;DHT22;6510;51.362;7.370;2023-09-30T04:30:18;10.80;99.90
12885;DHT22;6510;51.362;7.370;2023-09-30T04:32:45;10.70;99.90
12885;DHT22;6510;51.362;7.370;2023-09-30T04:35:10;10.70;99.90
12885;DHT22;6510;51.362;7.370;2023-09-30T04:37:37;10.70;99.90
12885;DHT22;6510;51.362;7.370;2023-09-30T04:40:04;10.70;99.90
12885;DHT22;6510;51.362;7.370;2023-09-30T04:42:36;10.70;99.90
12885;DHT22;6510;51.362;7.370;2023-09-30T04:45:03;10.60;99.90
12885;DHT22;6510;51.362;7.370;2023-09-30T04:47:31;10.50;99.90
12885;DHT22;6510;51.362;7.370;2023-09-30T04:49:57;10.50;99.90
12885;DHT22;6510;51.362;7.370;2023-09-30T04:52:23;10.50;99.90
12885;DHT22;6510;51.362;7.370;2023-09-30T04:54:53;10.40;99.90
12885;DHT22;6510;51.362;7.370;2023-09-30T04:57:18;10.40;99.90
12885;DHT22;6510;51.362;7.370;2023-09-30T04:59:44;10.30;99.90
12885;DHT22;6510;51.362;7.370;2023-09-30T05:02:12;10.20;99.90
12885;DHT22;6510;51.362;7.370;2023-09-30T05:04:40;10.30;99.90
12885;DHT22;6510;51.362;7.370;2023-09-30T05:07:06;10.20;99.90
12885;DHT22;6510;51.362;7.370;2023-09-30T05:09:31;10.20;99.90
12885;DHT22;6510;51.362;7.370;2023-09-30T05:11:57;10.20;99.90
12885;DHT22;6510;51.362;7.370;2023-09-30T05:14:23;10.20;99.90
12885;DHT22;6510;51.362;7.370;2023-09-30T05:16:48;10.20;99.90
12885;DHT22;6510;51.362;7.370;2023-09-30T05:19:14;10.20;99.90
12885;DHT22;6510;51.362;7.370;2023-09-30T05:21:40;10.10;99.90
12885;DHT22;6510;51.362;7.370;2023-09-30T05:24:05;10.20;99.90
12885;DHT22;6510;51.362;7.370;2023-09-30T05:26:31;10.20;99.90
12885;DHT22;6510;51.362;7.370;2023-09-30T05:28:58;10.20;99.90
12885;DHT22;6510;51.362;7.370;2023-09-30T05:31:25;10.10;99.90
12885;DHT22;6510;51.362;7.370;2023-09-30T05:33:50;10.20;99.90
12885;DHT22;6510;51.362;7.370;2023-09-30T05:36:16;10.20;99.90
12885;DHT22;6510;51.362;7.370;2023-09-30T05:38:42;10.20;99.90
12885;DHT22;6510;51.362;7.370;2023-09-30T05:41:08;10.20;99.90
12885;DHT22;6510;51.362;7.370;2023-09-30T05:43:33;10.20;99.90
12885;DHT22;6510;51.362;7.370;2023-09-30T05:45:59;10.30;99.90
12885;DHT22;6510;51.362;7.370;2023-09-30T05:48:25;10.30;99.90
12885;DHT22;6510;51.362;7.370;2023-09-30T05:50:50;10.20;99.90
12885;DHT22;6510;51.362;7.370;2023-09-30T05:53:16;10.30;99.90
12885;DHT22;6510;51.362;7.370;2023-09-30T05:55:42;10.20;99.90
12885;DHT22;6510;51.362;7.370;2023-09-30T05:58:15;10.30;99.90
12885;DHT22;6510;51.362;7.370;2023-09-30T06:00:42;10.30;99.90
12885;DHT22;6510;51.362;7.370;2023-09-30T06:03:08;10.30;99.90
12885;DHT22;6510;51.362;7.370;2023-09-30T06:05:34;10.30;99.90
12885;DHT22;6510;51.362;7.370;2023-09-30T06:08:04;10.40;99.90
12885;DHT22;6510;51.362;7.370;2023-09-30T06:10:30;10.40;99.90
12885;DHT22;6510;51.362;7.370;2023-09-30T06:12:56;10.40;99.90
12885;DHT22;6510;51.362;7.370;2023-09-30T06:15:23;10.50;99.90
12885;DHT22;6510;51.362;7.370;2023-09-30T06:17:52;10.50;99.90
12885;DHT22;6510;51.362;7.370;2023-09-30T06:20:18;10.50;99.90
12885;DHT22;6510;51.362;7.370;2023-09-30T06:22:44;10.60;99.90
12885;DHT22;6510;51.362;7.370;2023-09-30T06:25:15;10.60;99.90
12885;DHT22;6510;51.362;7.370;2023-09-30T06:27:42;10.70;99.90
12885;DHT22;6510;51.362;7.370;2023-09-30T06:30:08;10.70;99.90
12885;DHT22;6510;51.362;7.370;2023-09-30T06:32:34;10.70;99.90
12885;DHT22;6510;51.362;7.370;2023-09-30T06:35:02;10.70;99.90
12885;DHT22;6510;51.362;7.370;2023-09-30T06:37:28;10.80;99.90
12885;DHT22;6510;51.362;7.370;2023-09-30T06:39:55;10.90;99.90
12885;DHT22;6510;51.362;7.370;2023-09-30T06:42:21;10.90;99.90
12885;DHT22;6510;51.362;7.370;2023-09-30T06:44:47;11.00;99.90
12885;DHT22;6510;51.362;7.370;2023-09-30T06:47:12;11.00;99.90
12885;DHT22;6510;51.362;7.370;2023-09-30T06:49:38;11.00;99.90
12885;DHT22;6510;51.362;7.370;2023-09-30T06:52:05;11.00;99.90
12885;DHT22;6510;51.362;7.370;2023-09-30T06:54:31;11.00;99.90
12885;DHT22;6510;51.362;7.370;2023-09-30T06:56:57;11.10;99.90
12885;DHT22;6510;51.362;7.370;2023-09-30T06:59:22;11.20;99.90
12885;DHT22;6510;51.362;7.370;2023-09-30T07:01:50;11.50;99.90
12885;DHT22;6510;51.362;7.370;2023-09-30T07:04:16;11.70;99.90
12885;DHT22;6510;51.362;7.370;2023-09-30T07:06:41;12.00;99.90
12885;DHT22;6510;51.362;7.370;2023-09-30T07:09:07;12.10;99.90
12885;DHT22;6510;51.362;7.370;2023-09-30T07:11:32;12.00;99.90
12885;DHT22;6510;51.362;7.370;2023-09-30T07:13:58;12.10;99.90
12885;DHT22;6510;51.362;7.370;2023-09-30T07:16:24;12.20;99.90
12885;DHT22;6510;51.362;7.370;2023-09-30T07:18:50;13.10;99.90
12885;DHT22;6510;51.362;7.370;2023-09-30T07:21:16;14.50;99.90
12885;DHT22;6510;51.362;7.370;2023-09-30T07:23:41;15.50;99.90
12885;DHT22;6510;51.362;7.370;2023-09-30T07:26:07;16.50;99.90
12885;DHT22;6510;51.362;7.370;2023-09-30T07:28:37;17.00;99.90
12885;DHT22;6510;51.362;7.370;2023-09-30T07:31:02;17.40;99.90
12885;DHT22;6510;51.362;7.370;2023-09-30T07:33:28;18.00;99.90
12885;DHT22;6510;51.362;7.370;2023-09-30T07:35:55;18.10;99.90
12885;DHT22;6510;51.362;7.370;2023-09-30T07:38:21;18.30;99.90
12885;DHT22;6510;51.362;7.370;2023-09-30T07:40:47;19.00;99.90
12885;DHT22;6510;51.362;7.370;2023-09-30T07:43:14;19.20;99.90
12885;DHT22;6510;51.362;7.370;2023-09-30T07:45:40;19.40;99.90
12885;DHT22;6510;51.362;7.370;2023-09-30T07:48:07;19.90;99.90
12885;DHT22;6510;51.362;7.370;2023-09-30T07:50:38;20.40;99.90
12885;DHT22;6510;51.362;7.370;2023-09-30T07:53:04;20.90;99.90
12885;DHT22;6510;51.362;7.370;2023-09-30T07:55:30;21.10;99.90
12885;DHT22;6510;51.362;7.370;2023-09-30T07:57:56;21.00;99.90
12885;DHT22;6510;51.362;7.370;2023-09-30T08:00:24;20.90;99.90
12885;DHT22;6510;51.362;7.370;2023-09-30T08:02:50;21.10;99.90
12885;DHT22;6510;51.362;7.370;2023-09-30T08:05:16;21.20;99.90
12885;DHT22;6510;51.362;7.370;2023-09-30T08:07:42;21.70;99.90
12885;DHT22;6510;51.362;7.370;2023-09-30T08:10:08;22.10;99.90
12885;DHT22;6510;51.362;7.370;2023-09-30T08:12:39;22.20;99.90
12885;DHT22;6510;51.362;7.370;2023-09-30T08:15:05;22.90;99.90
12885;DHT22;6510;51.362;7.370;2023-09-30T08:17:31;23.60;99.40
12885;DHT22;6510;51.362;7.370;2023-09-30T08:19:58;23.70;97.90
12885;DHT22;6510;51.362;7.370;2023-09-30T08:22:23;23.30;97.50
12885;DHT22;6510;51.362;7.370;2023-09-30T08:24:53;23.00;99.00
12885;DHT22;6510;51.362;7.370;2023-09-30T08:27:19;23.20;98.30
12885;DHT22;6510;51.362;7.370;2023-09-30T08:29:45;23.50;97.40
12885;DHT22;6510;51.362;7.370;2023-09-30T08:32:11;23.90;97.30
12885;DHT22;6510;51.362;7.370;2023-09-30T08:34:37;23.90;95.30
12885;DHT22;6510;51.362;7.370;2023-09-30T08:37:02;24.10;95.90
12885;DHT22;6510;51.362;7.370;2023-09-30T08:39:28;24.00;96.10
12885;DHT22;6510;51.362;7.370;2023-09-30T08:41:55;24.80;95.20
12885;DHT22;6510;51.362;7.370;2023-09-30T08:44:21;24.40;95.10
12885;DHT22;6510;51.362;7.370;2023-09-30T08:46:49;25.50;92.60
12885;DHT22;6510;51.362;7.370;2023-09-30T08:49:16;25.20;91.80
12885;DHT22;6510;51.362;7.370;2023-09-30T08:51:43;25.90;89.80
12885;DHT22;6510;51.362;7.370;2023-09-30T08:54:09;26.20;89.50
12885;DHT22;6510;51.362;7.370;2023-09-30T08:56:36;26.50;85.10
12885;DHT22;6510;51.362;7.370;2023-09-30T08:59:03;26.50;86.70
12885;DHT22;6510;51.362;7.370;2023-09-30T09:01:30;26.20;85.00
12885;DHT22;6510;51.362;7.370;2023-09-30T09:03:57;26.40;85.90
12885;DHT22;6510;51.362;7.370;2023-09-30T09:06:23;27.50;82.30
12885;DHT22;6510;51.362;7.370;2023-09-30T09:08:50;26.40;80.40
12885;DHT22;6510;51.362;7.370;2023-09-30T09:11:16;25.70;85.90
12885;DHT22;6510;51.362;7.370;2023-09-30T09:16:11;25.00;84.80
12885;DHT22;6510;51.362;7.370;2023-09-30T09:18:37;25.00;85.70
12885;DHT22;6510;51.362;7.370;2023-09-30T09:21:19;25.80;86.90
12885;DHT22;6510;51.362;7.370;2023-09-30T09:23:47;26.70;80.10
12885;DHT22;6510;51.362;7.370;2023-09-30T09:26:28;27.00;77.20
12885;DHT22;6510;51.362;7.370;2023-09-30T09:29:01;27.00;75.30
12885;DHT22;6510;51.362;7.370;2023-09-30T09:31:30;26.20;76.20
12885;DHT22;6510;51.362;7.370;2023-09-30T09:33:57;25.90;77.70
12885;DHT22;6510;51.362;7.370;2023-09-30T09:36:39;25.90;79.10
12885;DHT22;6510;51.362;7.370;2023-09-30T09:39:06;25.60;79.80
12885;DHT22;6510;51.362;7.370;2023-09-30T09:41:32;25.80;79.90
12885;DHT22;6510;51.362;7.370;2023-09-30T09:43:59;26.80;77.90
12885;DHT22;6510;51.362;7.370;2023-09-30T09:46:27;25.50;78.20
12885;DHT22;6510;51.362;7.370;2023-09-30T09:48:54;26.20;77.50
12885;DHT22;6510;51.362;7.370;2023-09-30T09:51:23;25.50;75.00
12885;DHT22;6510;51.362;7.370;2023-09-30T09:53:50;26.50;74.60
12885;DHT22;6510;51.362;7.370;2023-09-30T09:56:17;24.90;77.10
12885;DHT22;6510;51.362;7.370;2023-09-30T09:58:47;25.30;74.20
12885;DHT22;6510;51.362;7.370;2023-09-30T10:01:13;26.20;74.20
12885;DHT22;6510;51.362;7.370;2023-09-30T10:03:40;26.50;70.80
12885;DHT22;6510;51.362;7.370;2023-09-30T10:06:07;27.10;66.10
12885;DHT22;6510;51.362;7.370;2023-09-30T10:08:41;25.60;67.20
12885;DHT22;6510;51.362;7.370;2023-09-30T10:11:08;23.70;81.30
12885;DHT22;6510;51.362;7.370;2023-09-30T10:13:54;25.60;75.10
12885;DHT22;6510;51.362;7.370;2023-09-30T10:19:21;25.10;78.90
12885;DHT22;6510;51.362;7.370;2023-09-30T10:24:46;24.10;78.40
12885;DHT22;6510;51.362;7.370;2023-09-30T10:40:51;30.50;51.00
12885;DHT22;6510;51.362;7.370;2023-09-30T10:45:56;29.60;48.40
12885;DHT22;6510;51.362;7.370;2023-09-30T10:50:52;29.70;49.20
12885;DHT22;6510;51.362;7.370;2023-09-30T10:53:18;29.90;51.60
12885;DHT22;6510;51.362;7.370;2023-09-30T10:55:53;30.70;49.10
12885;DHT22;6510;51.362;7.370;2023-09-30T10:58:20;29.90;48.10
12885;DHT22;6510;51.362;7.370;2023-09-30T11:00:55;26.00;53.90
12885;DHT22;6510;51.362;7.370;2023-09-30T11:03:21;24.70;57.50
12885;DHT22;6510;51.362;7.370;2023-09-30T11:05:50;24.70;61.70
12885;DHT22;6510;51.362;7.370;2023-09-30T11:08:21;27.30;53.10
12885;DHT22;6510;51.362;7.370;2023-09-30T11:10:49;27.90;50.60
12885;DHT22;6510;51.362;7.370;2023-09-30T11:13:16;27.80;52.10
12885;DHT22;6510;51.362;7.370;2023-09-30T11:15:42;29.50;51.30
12885;DHT22;6510;51.362;7.370;2023-09-30T11:18:16;31.20;46.70
12885;DHT22;6510;51.362;7.370;2023-09-30T11:20:42;30.60;43.80
12885;DHT22;6510;51.362;7.370;2023-09-30T11:23:10;30.60;45.30
12885;DHT22;6510;51.362;7.370;2023-09-30T11:25:37;29.20;46.20
12885;DHT22;6510;51.362;7.370;2023-09-30T11:28:36;27.70;48.10
12885;DHT22;6510;51.362;7.370;2023-09-30T11:31:02;25.80;51.90
12885;DHT22;6510;51.362;7.370;2023-09-30T11:33:28;23.80;55.00
12885;DHT22;6510;51.362;7.370;2023-09-30T11:36:03;25.40;57.30
12885;DHT22;6510;51.362;7.370;2023-09-30T11:38:29;28.20;47.60
12885;DHT22;6510;51.362;7.370;2023-09-30T11:41:05;30.90;44.10
12885;DHT22;6510;51.362;7.370;2023-09-30T11:43:33;31.80;42.50
12885;DHT22;6510;51.362;7.370;2023-09-30T11:46:11;33.10;40.30
12885;DHT22;6510;51.362;7.370;2023-09-30T11:48:58;29.10;42.50
12885;DHT22;6510;51.362;7.370;2023-09-30T11:51:34;27.10;48.60
12885;DHT22;6510;51.362;7.370;2023-09-30T11:54:08;26.60;47.10
12885;DHT22;6510;51.362;7.370;2023-09-30T11:56:36;24.20;52.80
12885;DHT22;6510;51.362;7.370;2023-09-30T11:59:02;22.70;59.60
12885;DHT22;6510;51.362;7.370;2023-09-30T12:01:29;21.80;68.20
12885;DHT22;6510;51.362;7.370;2023-09-30T12:03:56;20.80;75.10
12885;DHT22;6510;51.362;7.370;2023-09-30T12:06:22;20.90;76.60
12885;DHT22;6510;51.362;7.370;2023-09-30T12:08:48;22.40;71.40
12885;DHT22;6510;51.362;7.370;2023-09-30T12:11:14;22.10;63.90
12885;DHT22;6510;51.362;7.370;2023-09-30T12:13:41;22.10;69.60
12885;DHT22;6510;51.362;7.370;2023-09-30T12:16:07;25.20;57.90
12885;DHT22;6510;51.362;7.370;2023-09-30T12:18:32;27.90;47.20
12885;DHT22;6510;51.362;7.370;2023-09-30T12:20:58;29.90;45.30
12885;DHT22;6510;51.362;7.370;2023-09-30T12:23:24;30.20;39.90
12885;DHT22;6510;51.362;7.370;2023-09-30T12:25:50;32.20;38.30
12885;DHT22;6510;51.362;7.370;2023-09-30T12:28:15;31.20;36.40
12885;DHT22;6510;51.362;7.370;2023-09-30T12:30:43;30.60;38.40
12885;DHT22;6510;51.362;7.370;2023-09-30T12:33:08;30.60;34.90
12885;DHT22;6510;51.362;7.370;2023-09-30T12:35:35;30.60;35.20
12885;DHT22;6510;51.362;7.370;2023-09-30T12:38:01;30.20;35.30
12885;DHT22;6510;51.362;7.370;2023-09-30T12:40:26;30.50;36.80
12885;DHT22;6510;51.362;7.370;2023-09-30T12:42:53;29.80;39.30
12885;DHT22;6510;51.362;7.370;2023-09-30T12:45:19;28.50;37.40
12885;DHT22;6510;51.362;7.370;2023-09-30T12:47:44;27.60;39.70
12885;DHT22;6510;51.362;7.370;2023-09-30T13:10:25;28.70;40.40
12885;DHT22;6510;51.362;7.370;2023-09-30T13:12:51;28.90;37.40
12885;DHT22;6510;51.362;7.370;2023-09-30T13:15:19;28.10;39.50
12885;DHT22;6510;51.362;7.370;2023-09-30T13:17:53;26.80;41.80
12885;DHT22;6510;51.362;7.370;2023-09-30T13:20:25;25.90;44.20
12885;DHT22;6510;51.362;7.370;2023-09-30T13:29:07;26.60;44.50
12885;DHT22;6510;51.362;7.370;2023-09-30T13:31:37;26.20;46.90
12885;DHT22;6510;51.362;7.370;2023-09-30T13:34:19;26.20;46.90
12885;DHT22;6510;51.362;7.370;2023-09-30T13:40:14;27.40;43.20
12885;DHT22;6510;51.362;7.370;2023-09-30T13:43:09;27.10;44.00
12885;DHT22;6510;51.362;7.370;2023-09-30T13:45:35;26.10;48.20
12885;DHT22;6510;51.362;7.370;2023-09-30T13:48:02;26.40;44.20
12885;DHT22;6510;51.362;7.370;2023-09-30T13:50:28;26.40;46.30
12885;DHT22;6510;51.362;7.370;2023-09-30T13:52:54;26.90;45.20
12885;DHT22;6510;51.362;7.370;2023-09-30T13:55:26;27.30;43.00
12885;DHT22;6510;51.362;7.370;2023-09-30T13:57:52;27.60;41.70
12885;DHT22;6510;51.362;7.370;2023-09-30T14:00:17;28.20;42.90
12885;DHT22;6510;51.362;7.370;2023-09-30T14:02:46;27.00;44.40
12885;DHT22;6510;51.362;7.370;2023-09-30T14:05:44;26.50;46.40
12885;DHT22;6510;51.362;7.370;2023-09-30T14:08:11;26.30;46.30
12885;DHT22;6510;51.362;7.370;2023-09-30T14:10:40;25.90;46.10
12885;DHT22;6510;51.362;7.370;2023-09-30T14:13:08;25.80;46.80
12885;DHT22;6510;51.362;7.370;2023-09-30T14:16:30;25.50;46.90
12885;DHT22;6510;51.362;7.370;2023-09-30T14:19:17;25.70;47.70
12885;DHT22;6510;51.362;7.370;2023-09-30T14:21:45;25.30;49.20
12885;DHT22;6510;51.362;7.370;2023-09-30T14:24:17;24.90;49.30
12885;DHT22;6510;51.362;7.370;2023-09-30T14:26:46;24.40;48.90
12885;DHT22;6510;51.362;7.370;2023-09-30T14:29:18;23.90;53.70
12885;DHT22;6510;51.362;7.370;2023-09-30T14:31:44;23.70;52.70
12885;DHT22;6510;51.362;7.370;2023-09-30T14:34:09;23.80;53.50
12885;DHT22;6510;51.362;7.370;2023-09-30T14:36:35;24.10;52.30
12885;DHT22;6510;51.362;7.370;2023-09-30T14:39:01;24.10;50.80
12885;DHT22;6510;51.362;7.370;2023-09-30T14:44:48;24.10;50.20
12885;DHT22;6510;51.362;7.370;2023-09-30T14:47:14;22.50;54.70
12885;DHT22;6510;51.362;7.370;2023-09-30T14:49:41;21.80;58.30
12885;DHT22;6510;51.362;7.370;2023-09-30T14:52:15;21.80;61.30
12885;DHT22;6510;51.362;7.370;2023-09-30T14:54:41;21.40;63.00
12885;DHT22;6510;51.362;7.370;2023-09-30T14:57:08;20.50;68.70
12885;DHT22;6510;51.362;7.370;2023-09-30T14:59:35;19.90;71.80
12885;DHT22;6510;51.362;7.370;2023-09-30T15:02:01;19.70;74.30
12885;DHT22;6510;51.362;7.370;2023-09-30T15:04:27;19.50;77.40
12885;DHT22;6510;51.362;7.370;2023-09-30T15:06:53;19.20;76.20
12885;DHT22;6510;51.362;7.370;2023-09-30T15:09:18;19.20;80.90
12885;DHT22;6510;51.362;7.370;2023-09-30T15:11:44;19.10;80.90
12885;DHT22;6510;51.362;7.370;2023-09-30T15:14:10;18.90;81.40
12885;DHT22;6510;51.362;7.370;2023-09-30T15:16:35;18.90;82.50
12885;DHT22;6510;51.362;7.370;2023-09-30T15:19:01;18.80;83.60
12885;DHT22;6510;51.362;7.370;2023-09-30T15:21:27;18.70;85.80
12885;DHT22;6510;51.362;7.370;2023-09-30T15:23:52;18.70;85.40
12885;DHT22;6510;51.362;7.370;2023-09-30T15:26:18;18.50;89.40
12885;DHT22;6510;51.362;7.370;2023-09-30T15:28:45;18.50;89.50
12885;DHT22;6510;51.362;7.370;2023-09-30T15:31:10;18.40;90.00
12885;DHT22;6510;51.362;7.370;2023-09-30T15:33:36;18.30;90.60
12885;DHT22;6510;51.362;7.370;2023-09-30T15:36:13;18.30;90.00
12885;DHT22;6510;51.362;7.370;2023-09-30T15:38:39;18.30;90.20
12885;DHT22;6510;51.362;7.370;2023-09-30T15:41:05;18.20;91.60
12885;DHT22;6510;51.362;7.370;2023-09-30T15:43:32;18.20;92.90
12885;DHT22;6510;51.362;7.370;2023-09-30T15:46:02;17.90;93.50
12885;DHT22;6510;51.362;7.370;2023-09-30T15:48:27;17.70;93.90
12885;DHT22;6510;51.362;7.370;2023-09-30T15:50:53;17.60;94.80
12885;DHT22;6510;51.362;7.370;2023-09-30T15:53:19;17.60;96.50
12885;DHT22;6510;51.362;7.370;2023-09-30T15:55:44;17.50;97.50
12885;DHT22;6510;51.362;7.370;2023-09-30T15:58:10;17.30;99.00
12885;DHT22;6510;51.362;7.370;2023-09-30T16:00:37;17.30;99.90
12885;DHT22;6510;51.362;7.370;2023-09-30T16:03:05;17.20;99.90
12885;DHT22;6510;51.362;7.370;2023-09-30T16:05:32;17.20;99.90
12885;DHT22;6510;51.362;7.370;2023-09-30T16:07:58;17.10;99.90
12885;DHT22;6510;51.362;7.370;2023-09-30T16:10:24;17.10;99.90
12885;DHT22;6510;51.362;7.370;2023-09-30T16:12:49;17.00;99.90
12885;DHT22;6510;51.362;7.370;2023-09-30T16:15:15;16.90;99.90
12885;DHT22;6510;51.362;7.370;2023-09-30T16:17:41;16.90;99.90
12885;DHT22;6510;51.362;7.370;2023-09-30T16:20:07;16.70;99.90
12885;DHT22;6510;51.362;7.370;2023-09-30T16:22:34;16.60;99.90
12885;DHT22;6510;51.362;7.370;2023-09-30T16:25:00;16.60;99.90
12885;DHT22;6510;51.362;7.370;2023-09-30T16:27:31;16.40;99.90
12885;DHT22;6510;51.362;7.370;2023-09-30T16:29:57;16.30;99.90
12885;DHT22;6510;51.362;7.370;2023-09-30T16:32:23;16.20;99.90
12885;DHT22;6510;51.362;7.370;2023-09-30T16:34:49;16.10;99.90
12885;DHT22;6510;51.362;7.370;2023-09-30T16:37:14;16.00;99.90
12885;DHT22;6510;51.362;7.370;2023-09-30T16:39:40;15.90;99.90
12885;DHT22;6510;51.362;7.370;2023-09-30T16:42:07;15.80;99.90
12885;DHT22;6510;51.362;7.370;2023-09-30T16:44:32;15.70;99.90
12885;DHT22;6510;51.362;7.370;2023-09-30T16:46:58;15.60;99.90